createdAt,value
2017-06-22T00:01:11.641Z,17.20
2017-06-22T00:03:39.085Z,17.30
2017-06-22T00:06:06.559Z,17.20
2017-06-22T00:08:34.011Z,17.20
2017-06-22T00:11:01.446Z,17.10
2017-06-22T00:13:28.947Z,17.10
2017-06-22T00:15:56.468Z,17.10
2017-06-22T00:18:23.930Z,17.10
2017-06-22T00:20:51.374Z,17.00
2017-06-22T00:23:18.862Z,17.00
2017-06-22T00:25:46.406Z,17.10
2017-06-22T00:28:13.872Z,17.10
2017-06-22T00:30:41.314Z,17.10
2017-06-22T00:33:08.747Z,17.00
2017-06-22T00:35:36.174Z,17.00
2017-06-22T00:38:03.636Z,17.00
2017-06-22T00:40:31.870Z,17.00
2017-06-22T00:42:59.379Z,16.90
2017-06-22T00:45:26.906Z,16.90
2017-06-22T00:47:55.103Z,16.80
2017-06-22T00:50:22.534Z,16.80
2017-06-22T00:52:50.774Z,16.90
2017-06-22T00:55:18.222Z,16.90
2017-06-22T00:57:45.658Z,17.00
2017-06-22T01:00:13.099Z,17.00
2017-06-22T01:02:40.532Z,17.00
2017-06-22T01:05:08.753Z,17.10
2017-06-22T01:07:36.190Z,17.00
2017-06-22T01:10:03.619Z,17.10
2017-06-22T01:12:31.890Z,17.10
2017-06-22T01:14:59.346Z,17.10
2017-06-22T01:17:26.866Z,17.10
2017-06-22T01:19:54.836Z,17.20
2017-06-22T01:22:22.271Z,17.20
2017-06-22T01:24:49.751Z,17.30
2017-06-22T01:27:17.207Z,17.20
2017-06-22T01:29:44.676Z,17.20
2017-06-22T01:32:12.244Z,17.20
2017-06-22T01:34:39.678Z,17.20
2017-06-22T01:37:07.147Z,17.20
2017-06-22T01:39:34.610Z,17.20
2017-06-22T01:42:02.050Z,17.30
2017-06-22T01:44:29.507Z,17.40
2017-06-22T01:46:56.936Z,17.40
2017-06-22T01:49:24.382Z,17.50
2017-06-22T01:51:51.817Z,17.50
2017-06-22T01:54:20.027Z,17.50
2017-06-22T01:56:47.462Z,17.50
2017-06-22T01:59:14.900Z,17.50
2017-06-22T02:01:43.094Z,17.40
2017-06-22T02:04:10.535Z,17.40
2017-06-22T02:06:38.100Z,17.40
2017-06-22T02:09:05.533Z,17.40
2017-06-22T02:11:33.759Z,17.40
2017-06-22T02:14:01.211Z,17.30
2017-06-22T02:16:28.662Z,17.40
2017-06-22T02:18:56.121Z,17.40
2017-06-22T02:21:23.590Z,17.40
2017-06-22T02:24:00.076Z,17.30
2017-06-22T02:26:27.545Z,17.20
2017-06-22T02:28:55.073Z,17.10
2017-06-22T02:31:22.547Z,17.20
2017-06-22T02:33:49.990Z,17.30
2017-06-22T02:36:17.446Z,17.30
2017-06-22T02:38:44.884Z,17.40
2017-06-22T02:41:12.373Z,17.40
2017-06-22T02:43:39.803Z,17.40
2017-06-22T02:46:07.271Z,17.30
2017-06-22T02:48:34.836Z,17.30
2017-06-22T02:51:02.270Z,17.30
2017-06-22T02:53:29.746Z,17.30
2017-06-22T02:55:57.265Z,17.20
2017-06-22T02:58:24.724Z,17.10
2017-06-22T03:00:53.321Z,17.10
2017-06-22T03:03:20.798Z,17.10
2017-06-22T03:05:48.283Z,17.10
2017-06-22T03:08:15.703Z,17.10
2017-06-22T03:10:43.162Z,17.20
2017-06-22T03:13:10.651Z,17.20
2017-06-22T03:15:38.533Z,17.20
2017-06-22T03:18:05.954Z,17.20
2017-06-22T03:20:33.395Z,17.30
2017-06-22T03:23:01.688Z,17.30
2017-06-22T03:25:29.219Z,17.30
2017-06-22T03:27:56.774Z,17.40
2017-06-22T03:30:24.268Z,17.40
2017-06-22T03:32:51.706Z,17.50
2017-06-22T03:35:19.263Z,17.70
2017-06-22T03:37:46.718Z,17.60
2017-06-22T03:40:14.181Z,17.70
2017-06-22T03:42:41.627Z,17.80
2017-06-22T03:45:09.092Z,17.80
2017-06-22T03:47:36.534Z,17.80
2017-06-22T03:50:03.974Z,17.90
2017-06-22T03:52:31.454Z,17.90
2017-06-22T03:54:58.903Z,17.90
2017-06-22T03:57:26.369Z,17.90
2017-06-22T03:59:53.861Z,18.00
2017-06-22T04:02:21.379Z,18.10
2017-06-22T04:04:48.917Z,18.10
2017-06-22T04:07:16.387Z,18.30
2017-06-22T04:09:43.859Z,18.30
2017-06-22T04:12:11.316Z,18.40
2017-06-22T04:14:38.751Z,18.50
2017-06-22T04:17:06.225Z,18.50
2017-06-22T04:19:33.672Z,18.50
2017-06-22T04:22:01.131Z,18.60
2017-06-22T04:24:28.618Z,18.70
2017-06-22T04:26:56.166Z,18.60
2017-06-22T04:29:23.626Z,18.80
2017-06-22T04:31:51.063Z,18.80
2017-06-22T04:34:18.538Z,18.90
2017-06-22T04:36:45.996Z,19.00
2017-06-22T04:39:13.526Z,19.00
2017-06-22T04:41:40.959Z,19.10
2017-06-22T04:44:08.446Z,19.20
2017-06-22T04:46:35.874Z,19.20
2017-06-22T04:49:03.320Z,19.20
2017-06-22T04:51:30.779Z,19.20
2017-06-22T04:53:58.295Z,19.20
2017-06-22T04:56:25.847Z,19.20
2017-06-22T04:58:53.312Z,19.20
2017-06-22T05:01:20.874Z,19.20
2017-06-22T05:03:48.304Z,19.20
2017-06-22T05:06:15.758Z,19.20
2017-06-22T05:08:43.213Z,19.20
2017-06-22T05:11:10.678Z,19.20
2017-06-22T05:13:38.107Z,19.30
2017-06-22T05:16:05.542Z,19.30
2017-06-22T05:18:33.165Z,19.40
2017-06-22T05:21:00.699Z,19.40
2017-06-22T05:23:28.130Z,19.30
2017-06-22T05:25:55.642Z,19.30
2017-06-22T05:28:23.067Z,19.40
2017-06-22T05:30:50.523Z,19.30
2017-06-22T05:33:18.056Z,19.30
2017-06-22T05:35:45.555Z,19.20
2017-06-22T05:38:13.104Z,19.20
2017-06-22T05:40:40.559Z,19.20
2017-06-22T05:43:08.114Z,19.10
2017-06-22T05:45:35.538Z,19.20
2017-06-22T05:48:03.018Z,19.10
2017-06-22T05:50:30.509Z,19.20
2017-06-22T05:52:57.934Z,19.20
2017-06-22T05:55:25.394Z,19.20
2017-06-22T05:57:52.858Z,19.30
2017-06-22T06:00:20.303Z,19.40
2017-06-22T06:02:47.760Z,19.60
2017-06-22T06:05:15.322Z,19.80
2017-06-22T06:07:42.757Z,20.00
2017-06-22T06:10:10.470Z,20.20
2017-06-22T06:12:37.882Z,20.30
2017-06-22T06:15:06.298Z,20.40
2017-06-22T06:17:33.721Z,20.40
2017-06-22T06:20:01.970Z,20.60
2017-06-22T06:22:29.402Z,20.50
2017-06-22T06:24:56.941Z,20.80
2017-06-22T06:27:24.434Z,20.90
2017-06-22T06:29:51.895Z,21.00
2017-06-22T06:32:19.340Z,21.20
2017-06-22T06:34:46.823Z,21.20
2017-06-22T06:37:15.041Z,21.50
2017-06-22T06:39:42.526Z,21.40
2017-06-22T06:42:10.466Z,21.40
2017-06-22T06:44:37.905Z,21.50
2017-06-22T06:47:05.406Z,21.30
2017-06-22T06:49:32.940Z,21.40
2017-06-22T06:52:00.598Z,21.40
2017-06-22T06:54:28.075Z,21.50
2017-06-22T06:56:55.519Z,21.50
2017-06-22T06:59:22.986Z,21.70
2017-06-22T07:01:50.526Z,21.70
2017-06-22T07:04:18.001Z,21.50
2017-06-22T07:06:45.544Z,21.60
2017-06-22T07:09:13.099Z,21.50
2017-06-22T07:11:40.567Z,21.40
2017-06-22T07:14:08.018Z,21.30
2017-06-22T07:16:35.494Z,21.20
2017-06-22T07:19:02.949Z,21.20
2017-06-22T07:21:30.500Z,21.30
2017-06-22T07:23:57.978Z,21.30
2017-06-22T07:26:25.410Z,21.40
2017-06-22T07:28:52.883Z,21.50
2017-06-22T07:31:20.450Z,21.60
2017-06-22T07:33:47.995Z,21.80
2017-06-22T07:36:15.448Z,21.90
2017-06-22T07:38:42.912Z,22.10
2017-06-22T07:41:10.355Z,22.30
2017-06-22T07:43:37.823Z,22.40
2017-06-22T07:46:05.287Z,22.50
2017-06-22T07:48:32.730Z,22.70
2017-06-22T07:51:00.361Z,22.80
2017-06-22T07:53:27.907Z,23.00
2017-06-22T07:55:55.356Z,23.10
2017-06-22T07:58:22.869Z,23.20
2017-06-22T08:00:50.415Z,23.40
2017-06-22T08:03:17.911Z,23.40
2017-06-22T08:05:46.103Z,23.80
2017-06-22T08:08:13.648Z,23.80
2017-06-22T08:10:41.961Z,24.10
2017-06-22T08:13:09.519Z,24.10
2017-06-22T08:15:37.003Z,24.20
2017-06-22T08:18:04.554Z,24.40
2017-06-22T08:20:31.986Z,24.60
2017-06-22T08:22:59.734Z,24.60
2017-06-22T08:25:27.944Z,24.80
2017-06-22T08:27:55.485Z,24.80
2017-06-22T08:30:22.902Z,24.80
2017-06-22T08:32:51.112Z,24.40
2017-06-22T08:35:18.559Z,24.30
2017-06-22T08:37:45.990Z,24.20
2017-06-22T08:40:14.231Z,23.90
2017-06-22T08:42:41.694Z,23.80
2017-06-22T08:45:09.141Z,23.80
2017-06-22T08:47:36.567Z,23.70
2017-06-22T08:50:04.043Z,23.70
2017-06-22T08:52:31.503Z,23.60
2017-06-22T08:54:58.954Z,23.50
2017-06-22T08:57:26.507Z,23.30
2017-06-22T08:59:53.943Z,23.20
2017-06-22T09:02:21.426Z,23.10
2017-06-22T09:04:48.865Z,23.10
2017-06-22T09:07:16.331Z,22.90
2017-06-22T09:09:43.847Z,22.80
2017-06-22T09:12:12.302Z,22.50
2017-06-22T09:14:39.887Z,22.40
2017-06-22T09:17:07.391Z,22.40
2017-06-22T09:19:34.933Z,22.40
2017-06-22T09:22:02.495Z,22.40
2017-06-22T09:24:29.918Z,22.30
2017-06-22T09:26:57.350Z,22.30
2017-06-22T09:29:24.912Z,22.30
2017-06-22T09:31:52.420Z,22.20
2017-06-22T09:34:19.901Z,22.10
2017-06-22T09:36:47.355Z,21.90
2017-06-22T09:39:14.938Z,21.40
2017-06-22T09:41:42.374Z,21.10
2017-06-22T09:44:09.862Z,19.60
2017-06-22T09:46:37.301Z,18.60
2017-06-22T09:49:04.846Z,17.80
2017-06-22T09:51:32.398Z,17.20
2017-06-22T09:53:59.909Z,16.90
2017-06-22T09:56:28.126Z,16.80
2017-06-22T09:58:55.583Z,16.70
2017-06-22T10:01:23.080Z,16.80
2017-06-22T10:03:51.319Z,16.80
2017-06-22T10:06:18.778Z,16.80
2017-06-22T10:08:46.244Z,16.90
2017-06-22T10:11:13.803Z,16.90
2017-06-22T10:13:41.355Z,17.00
2017-06-22T10:16:08.814Z,17.10
2017-06-22T10:18:36.358Z,17.10
2017-06-22T10:21:03.831Z,17.20
2017-06-22T10:23:31.399Z,17.20
2017-06-22T10:25:58.847Z,17.30
2017-06-22T10:28:26.375Z,17.30
2017-06-22T10:30:53.851Z,17.30
2017-06-22T10:33:21.486Z,17.30
2017-06-22T10:35:49.045Z,17.40
2017-06-22T10:38:16.539Z,17.40
2017-06-22T10:40:44.024Z,17.50
2017-06-22T10:43:12.226Z,17.80
2017-06-22T10:45:39.978Z,17.70
2017-06-22T10:48:07.502Z,17.90
2017-06-22T10:50:34.947Z,18.00
2017-06-22T10:53:02.480Z,18.10
2017-06-22T10:55:30.011Z,18.30
2017-06-22T10:57:57.508Z,18.40
2017-06-22T11:00:24.948Z,18.50
2017-06-22T11:02:52.497Z,18.60
2017-06-22T11:05:19.974Z,18.60
2017-06-22T11:07:47.459Z,18.60
2017-06-22T11:10:15.173Z,18.80
2017-06-22T11:12:42.628Z,18.90
2017-06-22T11:15:10.138Z,18.90
2017-06-22T11:17:38.409Z,19.10
2017-06-22T11:20:05.843Z,19.10
2017-06-22T11:22:33.292Z,19.20
2017-06-22T11:25:00.753Z,19.20
2017-06-22T11:27:28.182Z,19.30
2017-06-22T11:29:55.627Z,19.30
2017-06-22T11:32:23.195Z,19.10
2017-06-22T11:34:50.644Z,19.10
2017-06-22T11:37:18.155Z,19.10
2017-06-22T11:39:45.599Z,19.10
2017-06-22T11:42:13.231Z,19.10
2017-06-22T11:44:40.731Z,19.10
2017-06-22T11:47:08.287Z,19.20
2017-06-22T11:49:35.751Z,19.40
2017-06-22T11:52:03.321Z,19.60
2017-06-22T11:54:30.746Z,19.80
2017-06-22T11:56:58.190Z,19.90
2017-06-22T11:59:25.631Z,20.10
2017-06-22T12:01:53.084Z,20.20
2017-06-22T12:04:20.591Z,20.30
2017-06-22T12:06:48.201Z,20.40
2017-06-22T12:09:15.634Z,20.50
2017-06-22T12:11:43.082Z,20.70
2017-06-22T12:14:10.602Z,21.00
2017-06-22T12:16:38.128Z,21.20
2017-06-22T12:19:05.614Z,21.40
2017-06-22T12:21:33.349Z,21.50
2017-06-22T12:24:00.776Z,21.60
2017-06-22T12:26:28.363Z,21.70
2017-06-22T12:28:55.839Z,21.80
2017-06-22T12:31:23.303Z,21.90
2017-06-22T12:33:50.723Z,22.00
2017-06-22T12:36:18.289Z,22.00
2017-06-22T12:38:45.718Z,22.20
2017-06-22T12:41:13.962Z,22.30
2017-06-22T12:43:41.505Z,22.20
2017-06-22T12:46:08.957Z,22.50
2017-06-22T12:48:36.452Z,22.50
2017-06-22T12:51:03.986Z,22.70
2017-06-22T12:53:31.527Z,22.90
2017-06-22T12:55:58.981Z,23.10
2017-06-22T12:58:26.440Z,23.30
2017-06-22T13:00:53.886Z,23.50
2017-06-22T13:03:21.362Z,23.60
2017-06-22T13:05:48.819Z,23.70
2017-06-22T13:08:16.402Z,24.00
2017-06-22T13:10:44.696Z,24.20
2017-06-22T13:13:13.102Z,24.40
2017-06-22T13:15:40.604Z,24.30
2017-06-22T13:18:08.080Z,24.70
2017-06-22T13:20:36.310Z,25.00
2017-06-22T13:23:04.062Z,25.00
2017-06-22T13:25:31.715Z,25.00
2017-06-22T13:27:59.286Z,24.90
2017-06-22T13:30:26.704Z,24.90
2017-06-22T13:32:54.197Z,25.00
2017-06-22T13:35:21.714Z,25.20
2017-06-22T13:37:49.301Z,25.40
2017-06-22T13:40:16.860Z,25.50
2017-06-22T13:42:44.304Z,25.60
2017-06-22T13:45:11.791Z,25.70
2017-06-22T13:47:39.332Z,25.90
2017-06-22T13:50:06.783Z,25.90
2017-06-22T13:52:34.232Z,26.10
2017-06-22T13:55:01.691Z,26.10
2017-06-22T13:57:29.203Z,26.10
2017-06-22T13:59:56.639Z,26.20
2017-06-22T14:02:24.080Z,26.30
2017-06-22T14:04:51.558Z,26.50
2017-06-22T14:07:19.089Z,26.50
2017-06-22T14:09:46.522Z,26.50
2017-06-22T14:12:13.954Z,26.60
2017-06-22T14:14:42.210Z,27.00
2017-06-22T14:17:09.771Z,26.90
2017-06-22T14:19:37.286Z,27.10
2017-06-22T14:22:04.775Z,27.50
2017-06-22T14:24:32.218Z,27.70
2017-06-22T14:26:59.758Z,27.90
2017-06-22T14:29:27.246Z,27.90
2017-06-22T14:31:54.830Z,28.10
2017-06-22T14:34:23.090Z,28.50
2017-06-22T14:36:50.542Z,28.40
2017-06-22T14:39:18.015Z,28.60
2017-06-22T14:41:45.591Z,28.80
2017-06-22T14:44:13.899Z,29.20
2017-06-22T14:46:41.388Z,29.20
2017-06-22T14:49:08.912Z,29.20
2017-06-22T14:51:36.469Z,29.10
2017-06-22T14:54:03.926Z,29.10
2017-06-22T14:56:31.346Z,29.00
2017-06-22T14:58:59.605Z,29.00
2017-06-22T15:01:27.031Z,29.00
2017-06-22T15:03:54.519Z,29.20
2017-06-22T15:06:22.043Z,29.40
2017-06-22T15:08:49.479Z,29.80
2017-06-22T15:11:16.919Z,30.00
2017-06-22T15:13:44.451Z,30.20
2017-06-22T15:16:12.672Z,30.10
2017-06-22T15:18:40.159Z,30.00
2017-06-22T15:21:07.635Z,30.30
2017-06-22T15:23:35.083Z,30.90
2017-06-22T15:26:02.553Z,31.40
2017-06-22T15:28:30.259Z,31.90
2017-06-22T15:30:57.698Z,32.10
2017-06-22T15:33:25.158Z,32.40
2017-06-22T15:35:52.627Z,32.90
2017-06-22T15:38:20.052Z,33.10
2017-06-22T15:40:48.246Z,33.40
2017-06-22T15:43:15.819Z,33.30
2017-06-22T15:45:43.263Z,33.40
2017-06-22T15:48:10.715Z,33.00
2017-06-22T15:50:38.310Z,32.60
2017-06-22T15:53:05.766Z,32.30
2017-06-22T15:55:33.199Z,30.30
2017-06-22T15:58:00.703Z,31.40
2017-06-22T16:00:28.147Z,31.00
2017-06-22T16:02:55.580Z,30.60
2017-06-22T16:05:23.243Z,30.30
2017-06-22T16:07:50.686Z,30.00
2017-06-22T16:10:18.166Z,29.80
2017-06-22T16:12:45.598Z,29.80
2017-06-22T16:15:13.080Z,29.80
2017-06-22T16:17:40.611Z,29.70
2017-06-22T16:20:08.131Z,29.60
2017-06-22T16:22:36.362Z,29.80
2017-06-22T16:25:03.798Z,29.70
2017-06-22T16:27:31.260Z,30.10
2017-06-22T16:29:58.766Z,30.60
2017-06-22T16:32:26.235Z,31.40
2017-06-22T16:34:53.662Z,32.20
2017-06-22T16:37:21.184Z,32.40
2017-06-22T16:39:48.741Z,32.20
2017-06-22T16:42:16.227Z,31.70
2017-06-22T16:44:43.667Z,31.10
2017-06-22T16:47:11.108Z,30.70
2017-06-22T16:49:38.589Z,30.20
2017-06-22T16:52:06.071Z,29.90
2017-06-22T16:54:33.502Z,29.70
2017-06-22T16:57:01.083Z,29.20
2017-06-22T16:59:28.553Z,28.80
2017-06-22T17:01:55.995Z,28.60
2017-06-22T17:04:23.476Z,27.00
2017-06-22T17:06:51.672Z,21.80
2017-06-22T17:09:19.114Z,21.60
2017-06-22T17:11:46.648Z,20.50
2017-06-22T17:14:14.895Z,19.30
2017-06-22T17:16:42.530Z,19.20
2017-06-22T17:19:10.016Z,19.30
2017-06-22T17:21:37.463Z,19.60
2017-06-22T17:24:04.946Z,19.80
2017-06-22T17:26:32.462Z,20.00
2017-06-22T17:29:00.024Z,20.10
2017-06-22T17:31:27.462Z,20.30
2017-06-22T17:33:54.950Z,20.40
2017-06-22T17:36:22.418Z,20.40
2017-06-22T17:38:49.948Z,20.50
2017-06-22T17:41:17.426Z,20.50
2017-06-22T17:43:45.168Z,20.50
2017-06-22T17:46:12.657Z,20.50
2017-06-22T17:48:40.184Z,20.50
2017-06-22T17:51:07.668Z,20.50
2017-06-22T17:53:35.128Z,20.60
2017-06-22T17:56:02.653Z,20.70
2017-06-22T17:58:30.143Z,20.60
2017-06-22T18:00:57.775Z,20.50
2017-06-22T18:03:25.250Z,20.40
2017-06-22T18:05:52.739Z,20.50
2017-06-22T18:08:20.313Z,20.70
2017-06-22T18:10:47.761Z,20.70
2017-06-22T18:13:15.242Z,20.80
2017-06-22T18:15:42.699Z,20.80
2017-06-22T18:18:10.235Z,20.70
2017-06-22T18:20:37.692Z,20.70
2017-06-22T18:23:05.147Z,20.60
2017-06-22T18:25:32.709Z,20.50
2017-06-22T18:28:00.125Z,20.50
2017-06-22T18:30:28.438Z,20.50
2017-06-22T18:32:55.858Z,20.40
2017-06-22T18:35:24.122Z,20.50
2017-06-22T18:37:52.370Z,20.60
2017-06-22T18:40:19.823Z,20.60
2017-06-22T18:42:47.284Z,20.70
2017-06-22T18:45:14.739Z,20.60
2017-06-22T18:47:42.202Z,20.50
2017-06-22T18:50:09.770Z,20.60
2017-06-22T18:52:37.339Z,20.50
2017-06-22T18:55:04.775Z,20.50
2017-06-22T18:57:32.711Z,20.70
2017-06-22T19:00:00.193Z,20.80
2017-06-22T19:02:27.659Z,20.80
2017-06-22T19:04:55.121Z,20.80
2017-06-22T19:07:22.589Z,20.70
2017-06-22T19:09:50.151Z,20.70
2017-06-22T19:12:18.401Z,20.70
2017-06-22T19:14:45.852Z,20.60
2017-06-22T19:17:13.286Z,20.60
2017-06-22T19:19:40.778Z,20.50
2017-06-22T19:22:08.229Z,20.40
2017-06-22T19:24:35.667Z,20.20
2017-06-22T19:27:03.122Z,20.20
2017-06-22T19:29:30.575Z,20.20
2017-06-22T19:31:58.008Z,20.30
2017-06-22T19:34:25.531Z,20.30
2017-06-22T19:36:53.731Z,20.40
2017-06-22T19:39:21.230Z,20.30
2017-06-22T19:41:48.674Z,20.40
2017-06-22T19:44:16.171Z,20.40
2017-06-22T19:46:43.708Z,20.40
2017-06-22T19:49:11.179Z,20.50
2017-06-22T19:51:38.625Z,20.50
2017-06-22T19:54:06.102Z,20.60
2017-06-22T19:56:33.640Z,20.50
2017-06-22T19:59:01.187Z,20.30
2017-06-22T20:01:28.739Z,20.20
2017-06-22T20:03:56.194Z,20.30
2017-06-22T20:06:23.657Z,20.40
2017-06-22T20:08:51.143Z,20.40
2017-06-22T20:11:19.389Z,20.50
2017-06-22T20:13:46.844Z,20.40
2017-06-22T20:16:14.319Z,20.50
2017-06-22T20:18:41.770Z,20.50
2017-06-22T20:21:09.342Z,20.30
2017-06-22T20:23:36.890Z,20.30
2017-06-22T20:26:04.329Z,20.20
2017-06-22T20:28:31.812Z,20.20
2017-06-22T20:30:59.364Z,20.20
2017-06-22T20:33:26.910Z,20.20
2017-06-22T20:35:54.366Z,20.20
2017-06-22T20:38:21.846Z,20.20
2017-06-22T20:40:49.298Z,20.20
2017-06-22T20:43:16.766Z,20.10
2017-06-22T20:45:45.084Z,20.10
2017-06-22T20:48:12.527Z,20.00
2017-06-22T20:50:39.997Z,20.10
2017-06-22T20:53:07.513Z,20.10
2017-06-22T20:55:35.790Z,20.00
2017-06-22T20:58:04.022Z,19.90
2017-06-22T21:00:31.578Z,19.90
2017-06-22T21:02:59.014Z,19.90
2017-06-22T21:05:26.495Z,19.90
2017-06-22T21:07:54.142Z,20.00
2017-06-22T21:10:21.609Z,19.90
2017-06-22T21:12:49.044Z,20.00
2017-06-22T21:15:16.563Z,20.00
2017-06-22T21:17:44.810Z,20.00
2017-06-22T21:20:12.275Z,19.90
2017-06-22T21:22:39.724Z,20.00
2017-06-22T21:25:07.176Z,20.00
2017-06-22T21:27:34.674Z,20.00
2017-06-22T21:30:03.223Z,20.00
2017-06-22T21:32:30.679Z,19.90
2017-06-22T21:34:58.272Z,19.90
2017-06-22T21:37:26.498Z,20.10
2017-06-22T21:39:54.035Z,20.00
2017-06-22T21:42:21.478Z,20.10
2017-06-22T21:44:49.002Z,20.10
2017-06-22T21:47:16.831Z,20.10
2017-06-22T21:49:44.322Z,20.00
2017-06-22T21:52:12.645Z,19.90
2017-06-22T21:54:40.155Z,19.90
2017-06-22T21:57:07.586Z,19.90
2017-06-22T21:59:35.050Z,19.80
2017-06-22T22:02:02.515Z,19.70
2017-06-22T22:04:30.155Z,19.70
2017-06-22T22:06:57.622Z,19.80
2017-06-22T22:09:25.058Z,19.80
2017-06-22T22:11:52.535Z,19.80
2017-06-22T22:14:19.976Z,19.80
2017-06-22T22:16:47.444Z,19.80
2017-06-22T22:19:14.896Z,19.80
2017-06-22T22:21:42.387Z,19.80
2017-06-22T22:24:10.603Z,19.70
2017-06-22T22:26:38.094Z,19.70
2017-06-22T22:29:05.670Z,19.70
2017-06-22T22:31:33.924Z,19.70
2017-06-22T22:34:01.374Z,19.70
2017-06-22T22:36:28.908Z,19.70
2017-06-22T22:38:56.399Z,19.60
2017-06-22T22:41:23.848Z,19.60
2017-06-22T22:43:51.330Z,19.50
2017-06-22T22:46:18.816Z,19.50
2017-06-22T22:48:47.048Z,19.50
2017-06-22T22:51:14.592Z,19.40
2017-06-22T22:53:42.054Z,19.40
2017-06-22T22:56:09.503Z,19.40
2017-06-22T22:58:36.959Z,19.30
2017-06-22T23:01:04.403Z,19.40
2017-06-22T23:03:31.895Z,19.40
2017-06-22T23:05:59.430Z,19.40
2017-06-22T23:08:26.994Z,19.30
2017-06-22T23:10:54.428Z,19.40
2017-06-22T23:13:21.879Z,19.30
2017-06-22T23:15:49.359Z,19.30
2017-06-22T23:18:16.803Z,19.30
2017-06-22T23:20:44.244Z,19.20
2017-06-22T23:23:11.727Z,19.10
2017-06-22T23:25:39.187Z,19.10
2017-06-22T23:28:06.632Z,19.00
2017-06-22T23:30:34.084Z,19.00
2017-06-22T23:33:01.547Z,18.90
2017-06-22T23:35:29.003Z,18.80
2017-06-22T23:37:56.434Z,18.80
2017-06-22T23:40:23.915Z,18.70
2017-06-22T23:42:51.396Z,18.60
2017-06-22T23:45:18.851Z,18.60
2017-06-22T23:47:46.294Z,18.70
2017-06-22T23:50:13.754Z,18.80
2017-06-22T23:52:41.305Z,18.80
2017-06-22T23:55:08.870Z,18.80
2017-06-22T23:57:36.415Z,18.70
